1A9

Prattville - Grouby Field Airport

Prattville, Alabama, USA
METAR K1A9 092135Z AUTO 31004KT 10SM BKN015 OVC020 06/05 A3000 RMK AO2 T00630054
Observed Flight Rules
Dec-9 @ 21:35 UTC (6 minutes ago) Marginal Visual Flight Rules
Wind Visibility Clouds
310° at 4 knots 10 miles
  • Broken at 1,500' AGL
  • Overcast at 2,000' AGL
Temperatures Readings
Current 6°C / 43°F
Dewpoint 5°C / 41°F
Humidity 93%
Altimeter 30" Hg
Pressure 1016 hPa
Elevation 69
METAR K1A9 092135Z AUTO 31004KT 10SM BKN015 OVC020 06/05 A3000 RMK AO2 T00630054
Observed Flight Rules
Dec-9 @ 21:35 UTC
(6 minutes ago)
MVFR
Wind Visibility
310° at 4 knots 10 miles
Clouds
  • Broken at 1,500' AGL
  • Overcast at 2,000' AGL
Temperature Dewpoint
6°C / 43°F 5°C / 41°F
Humidity Altimeter Pressure
93% 30" Hg 1016 hPa